sensor_id;sensor_type;location;lat;lon;timestamp;P1;durP1;ratioP1;P2;durP2;ratioP2
58774;SDS011;44545;47.480;19.024;2024-01-30T04:22:10;5.05;;;3.53;;
58774;SDS011;44545;47.480;19.024;2024-01-30T04:25:13;8.80;;;4.60;;
58774;SDS011;44545;47.480;19.024;2024-01-30T04:28:16;3.00;;;1.92;;
58774;SDS011;44545;47.480;19.024;2024-01-30T04:31:18;11.82;;;5.47;;
58774;SDS011;44545;47.480;19.024;2024-01-30T04:34:20;1.80;;;1.33;;
58774;SDS011;44545;47.480;19.024;2024-01-30T04:37:23;11.73;;;3.62;;
58774;SDS011;44545;47.480;19.024;2024-01-30T04:40:26;2.05;;;1.73;;
58774;SDS011;44545;47.480;19.024;2024-01-30T04:43:29;6.72;;;4.37;;
58774;SDS011;44545;47.480;19.024;2024-01-30T04:46:32;3.35;;;2.30;;
58774;SDS011;44545;47.480;19.024;2024-01-30T04:49:36;4.43;;;3.08;;
58774;SDS011;44545;47.480;19.024;2024-01-30T04:52:40;6.22;;;5.47;;
58774;SDS011;44545;47.480;19.024;2024-01-30T04:55:42;4.68;;;2.85;;
58774;SDS011;44545;47.480;19.024;2024-01-30T04:58:44;2.95;;;2.75;;
58774;SDS011;44545;47.480;19.024;2024-01-30T05:01:47;3.47;;;3.17;;
58774;SDS011;44545;47.480;19.024;2024-01-30T05:04:49;2.83;;;2.62;;
58774;SDS011;44545;47.480;19.024;2024-01-30T05:07:52;3.40;;;2.62;;
58774;SDS011;44545;47.480;19.024;2024-01-30T05:10:54;8.57;;;3.62;;
58774;SDS011;44545;47.480;19.024;2024-01-30T05:13:57;2.58;;;2.37;;
58774;SDS011;44545;47.480;19.024;2024-01-30T05:16:59;2.22;;;1.77;;
58774;SDS011;44545;47.480;19.024;2024-01-30T05:20:02;2.08;;;1.98;;
58774;SDS011;44545;47.480;19.024;2024-01-30T05:23:04;5.80;;;2.50;;
58774;SDS011;44545;47.480;19.024;2024-01-30T05:26:07;3.53;;;3.30;;
58774;SDS011;44545;47.480;19.024;2024-01-30T05:29:10;3.80;;;3.45;;
58774;SDS011;44545;47.480;19.024;2024-01-30T05:32:12;6.65;;;4.18;;
58774;SDS011;44545;47.480;19.024;2024-01-30T05:35:15;3.78;;;3.30;;
58774;SDS011;44545;47.480;19.024;2024-01-30T05:38:17;2.70;;;2.45;;
58774;SDS011;44545;47.480;19.024;2024-01-30T05:41:19;1.85;;;1.75;;
58774;SDS011;44545;47.480;19.024;2024-01-30T05:44:23;4.03;;;3.47;;
58774;SDS011;44545;47.480;19.024;2024-01-30T05:47:25;6.43;;;3.90;;
58774;SDS011;44545;47.480;19.024;2024-01-30T05:50:28;2.10;;;1.90;;
58774;SDS011;44545;47.480;19.024;2024-01-30T05:53:30;2.53;;;2.33;;
58774;SDS011;44545;47.480;19.024;2024-01-30T05:56:33;4.18;;;2.15;;
58774;SDS011;44545;47.480;19.024;2024-01-30T05:59:35;4.82;;;3.03;;
58774;SDS011;44545;47.480;19.024;2024-01-30T06:02:42;5.95;;;4.03;;
58774;SDS011;44545;47.480;19.024;2024-01-30T06:05:45;3.65;;;2.15;;
58774;SDS011;44545;47.480;19.024;2024-01-30T06:08:47;1.70;;;1.60;;
58774;SDS011;44545;47.480;19.024;2024-01-30T06:11:50;4.97;;;2.45;;
58774;SDS011;44545;47.480;19.024;2024-01-30T06:14:52;2.92;;;2.28;;
58774;SDS011;44545;47.480;19.024;2024-01-30T06:17:56;5.18;;;3.03;;
58774;SDS011;44545;47.480;19.024;2024-01-30T06:21:04;6.10;;;3.78;;
58774;SDS011;44545;47.480;19.024;2024-01-30T06:24:07;4.57;;;2.25;;
58774;SDS011;44545;47.480;19.024;2024-01-30T06:27:09;4.85;;;3.12;;
58774;SDS011;44545;47.480;19.024;2024-01-30T06:30:12;3.08;;;2.87;;
58774;SDS011;44545;47.480;19.024;2024-01-30T06:33:14;4.62;;;2.87;;
58774;SDS011;44545;47.480;19.024;2024-01-30T06:36:17;9.48;;;3.58;;
58774;SDS011;44545;47.480;19.024;2024-01-30T06:39:20;2.83;;;2.62;;
58774;SDS011;44545;47.480;19.024;2024-01-30T06:42:23;2.15;;;1.85;;
58774;SDS011;44545;47.480;19.024;2024-01-30T06:45:25;5.15;;;2.35;;
58774;SDS011;44545;47.480;19.024;2024-01-30T06:48:28;5.57;;;2.75;;
58774;SDS011;44545;47.480;19.024;2024-01-30T06:51:30;2.25;;;2.05;;
58774;SDS011;44545;47.480;19.024;2024-01-30T06:54:34;5.00;;;2.70;;
58774;SDS011;44545;47.480;19.024;2024-01-30T06:57:39;6.30;;;3.22;;
58774;SDS011;44545;47.480;19.024;2024-01-30T07:00:41;33.72;;;5.47;;
58774;SDS011;44545;47.480;19.024;2024-01-30T07:03:44;3.05;;;2.45;;
58774;SDS011;44545;47.480;19.024;2024-01-30T07:06:50;10.32;;;6.45;;
58774;SDS011;44545;47.480;19.024;2024-01-30T07:09:55;3.60;;;2.65;;
58774;SDS011;44545;47.480;19.024;2024-01-30T07:13:00;6.25;;;3.10;;
58774;SDS011;44545;47.480;19.024;2024-01-30T07:16:03;3.85;;;2.97;;
58774;SDS011;44545;47.480;19.024;2024-01-30T07:19:06;7.75;;;3.75;;
58774;SDS011;44545;47.480;19.024;2024-01-30T07:22:11;6.62;;;5.30;;
58774;SDS011;44545;47.480;19.024;2024-01-30T07:25:14;3.72;;;3.37;;
58774;SDS011;44545;47.480;19.024;2024-01-30T07:28:19;6.12;;;4.20;;
58774;SDS011;44545;47.480;19.024;2024-01-30T07:31:24;2.85;;;2.35;;
58774;SDS011;44545;47.480;19.024;2024-01-30T07:34:26;4.60;;;4.18;;
58774;SDS011;44545;47.480;19.024;2024-01-30T07:37:30;5.00;;;4.20;;
58774;SDS011;44545;47.480;19.024;2024-01-30T07:40:32;5.93;;;4.10;;
58774;SDS011;44545;47.480;19.024;2024-01-30T07:43:35;5.78;;;4.00;;
58774;SDS011;44545;47.480;19.024;2024-01-30T07:46:38;3.83;;;3.45;;
58774;SDS011;44545;47.480;19.024;2024-01-30T07:49:41;8.98;;;5.90;;
58774;SDS011;44545;47.480;19.024;2024-01-30T07:52:43;4.37;;;3.50;;
58774;SDS011;44545;47.480;19.024;2024-01-30T07:55:46;10.13;;;5.95;;
58774;SDS011;44545;47.480;19.024;2024-01-30T07:58:48;6.68;;;4.40;;
58774;SDS011;44545;47.480;19.024;2024-01-30T08:01:51;5.37;;;3.28;;
58774;SDS011;44545;47.480;19.024;2024-01-30T08:04:54;4.75;;;3.67;;
58774;SDS011;44545;47.480;19.024;2024-01-30T08:07:56;5.32;;;4.12;;
58774;SDS011;44545;47.480;19.024;2024-01-30T08:10:59;12.77;;;7.10;;
58774;SDS011;44545;47.480;19.024;2024-01-30T08:14:02;14.45;;;7.87;;
58774;SDS011;44545;47.480;19.024;2024-01-30T08:17:04;8.13;;;5.72;;
58774;SDS011;44545;47.480;19.024;2024-01-30T08:20:07;9.02;;;5.28;;
58774;SDS011;44545;47.480;19.024;2024-01-30T08:23:14;16.95;;;6.30;;
58774;SDS011;44545;47.480;19.024;2024-01-30T08:26:16;6.00;;;5.12;;
58774;SDS011;44545;47.480;19.024;2024-01-30T08:29:19;8.68;;;4.85;;
58774;SDS011;44545;47.480;19.024;2024-01-30T08:32:21;13.27;;;5.70;;
58774;SDS011;44545;47.480;19.024;2024-01-30T08:35:24;16.33;;;6.75;;
58774;SDS011;44545;47.480;19.024;2024-01-30T08:38:27;12.85;;;7.87;;
58774;SDS011;44545;47.480;19.024;2024-01-30T08:41:29;26.42;;;8.90;;
58774;SDS011;44545;47.480;19.024;2024-01-30T08:44:32;10.55;;;5.65;;
58774;SDS011;44545;47.480;19.024;2024-01-30T08:47:34;7.93;;;5.80;;
58774;SDS011;44545;47.480;19.024;2024-01-30T08:50:36;14.38;;;6.70;;
58774;SDS011;44545;47.480;19.024;2024-01-30T08:53:39;8.48;;;4.82;;
58774;SDS011;44545;47.480;19.024;2024-01-30T08:56:41;12.90;;;6.43;;
58774;SDS011;44545;47.480;19.024;2024-01-30T08:59:44;10.85;;;6.82;;
58774;SDS011;44545;47.480;19.024;2024-01-30T09:02:47;21.92;;;6.18;;
58774;SDS011;44545;47.480;19.024;2024-01-30T09:05:50;7.62;;;5.35;;
58774;SDS011;44545;47.480;19.024;2024-01-30T09:08:52;8.30;;;4.68;;
58774;SDS011;44545;47.480;19.024;2024-01-30T09:11:55;8.60;;;4.40;;
58774;SDS011;44545;47.480;19.024;2024-01-30T09:14:58;10.23;;;5.68;;
58774;SDS011;44545;47.480;19.024;2024-01-30T09:18:02;10.30;;;6.45;;
58774;SDS011;44545;47.480;19.024;2024-01-30T09:21:04;13.30;;;5.87;;
58774;SDS011;44545;47.480;19.024;2024-01-30T09:24:07;14.32;;;7.05;;
58774;SDS011;44545;47.480;19.024;2024-01-30T09:27:09;22.45;;;7.43;;
58774;SDS011;44545;47.480;19.024;2024-01-30T09:30:12;19.80;;;6.60;;
58774;SDS011;44545;47.480;19.024;2024-01-30T09:33:14;10.85;;;6.72;;
58774;SDS011;44545;47.480;19.024;2024-01-30T09:36:17;8.70;;;5.35;;
58774;SDS011;44545;47.480;19.024;2024-01-30T09:39:21;16.27;;;6.45;;
58774;SDS011;44545;47.480;19.024;2024-01-30T09:45:26;8.80;;;5.03;;
58774;SDS011;44545;47.480;19.024;2024-01-30T09:48:29;13.85;;;7.25;;
58774;SDS011;44545;47.480;19.024;2024-01-30T09:51:32;11.77;;;6.70;;
58774;SDS011;44545;47.480;19.024;2024-01-30T09:54:37;21.77;;;6.82;;
58774;SDS011;44545;47.480;19.024;2024-01-30T09:57:41;8.90;;;5.68;;
58774;SDS011;44545;47.480;19.024;2024-01-30T10:00:44;11.95;;;6.85;;
58774;SDS011;44545;47.480;19.024;2024-01-30T10:03:46;9.48;;;5.72;;
58774;SDS011;44545;47.480;19.024;2024-01-30T10:06:49;11.88;;;5.32;;
58774;SDS011;44545;47.480;19.024;2024-01-30T10:09:53;12.63;;;7.57;;
58774;SDS011;44545;47.480;19.024;2024-01-30T10:12:56;19.83;;;7.78;;
58774;SDS011;44545;47.480;19.024;2024-01-30T10:15:58;22.30;;;8.10;;
58774;SDS011;44545;47.480;19.024;2024-01-30T10:19:01;14.57;;;4.57;;
58774;SDS011;44545;47.480;19.024;2024-01-30T10:22:05;12.50;;;6.97;;
58774;SDS011;44545;47.480;19.024;2024-01-30T10:25:07;6.18;;;3.60;;
58774;SDS011;44545;47.480;19.024;2024-01-30T10:28:11;11.38;;;5.80;;
58774;SDS011;44545;47.480;19.024;2024-01-30T10:31:18;12.52;;;4.22;;
58774;SDS011;44545;47.480;19.024;2024-01-30T10:34:21;7.37;;;4.50;;
58774;SDS011;44545;47.480;19.024;2024-01-30T10:37:25;14.13;;;6.43;;
58774;SDS011;44545;47.480;19.024;2024-01-30T10:40:28;12.10;;;7.50;;
58774;SDS011;44545;47.480;19.024;2024-01-30T10:43:32;14.90;;;7.87;;
58774;SDS011;44545;47.480;19.024;2024-01-30T10:49:41;11.63;;;6.80;;
58774;SDS011;44545;47.480;19.024;2024-01-30T10:52:45;10.45;;;6.35;;
58774;SDS011;44545;47.480;19.024;2024-01-30T10:55:50;11.07;;;7.57;;
58774;SDS011;44545;47.480;19.024;2024-01-30T10:58:54;10.82;;;6.90;;
58774;SDS011;44545;47.480;19.024;2024-01-30T11:01:59;11.43;;;7.32;;
58774;SDS011;44545;47.480;19.024;2024-01-30T11:05:04;13.60;;;7.05;;
58774;SDS011;44545;47.480;19.024;2024-01-30T11:08:10;9.15;;;5.95;;
58774;SDS011;44545;47.480;19.024;2024-01-30T11:11:14;14.15;;;7.07;;
58774;SDS011;44545;47.480;19.024;2024-01-30T11:14:23;10.48;;;5.07;;
58774;SDS011;44545;47.480;19.024;2024-01-30T11:17:27;17.25;;;7.05;;
58774;SDS011;44545;47.480;19.024;2024-01-30T11:20:30;8.25;;;5.57;;
58774;SDS011;44545;47.480;19.024;2024-01-30T11:23:34;12.45;;;7.18;;
58774;SDS011;44545;47.480;19.024;2024-01-30T11:26:38;16.62;;;6.75;;
58774;SDS011;44545;47.480;19.024;2024-01-30T11:29:41;9.80;;;5.97;;
58774;SDS011;44545;47.480;19.024;2024-01-30T11:32:43;11.43;;;6.07;;
58774;SDS011;44545;47.480;19.024;2024-01-30T11:35:46;12.32;;;6.50;;
58774;SDS011;44545;47.480;19.024;2024-01-30T11:38:49;15.25;;;6.28;;
58774;SDS011;44545;47.480;19.024;2024-01-30T11:41:52;13.40;;;5.12;;
58774;SDS011;44545;47.480;19.024;2024-01-30T11:44:55;21.98;;;7.78;;
58774;SDS011;44545;47.480;19.024;2024-01-30T11:47:57;18.23;;;6.72;;
58774;SDS011;44545;47.480;19.024;2024-01-30T11:51:02;11.80;;;6.30;;
58774;SDS011;44545;47.480;19.024;2024-01-30T11:54:04;10.57;;;5.35;;
58774;SDS011;44545;47.480;19.024;2024-01-30T11:57:07;15.63;;;5.85;;
58774;SDS011;44545;47.480;19.024;2024-01-30T12:00:16;15.32;;;6.15;;
58774;SDS011;44545;47.480;19.024;2024-01-30T12:03:21;14.00;;;6.00;;
58774;SDS011;44545;47.480;19.024;2024-01-30T12:06:24;13.13;;;6.12;;
58774;SDS011;44545;47.480;19.024;2024-01-30T12:09:27;8.48;;;4.43;;
58774;SDS011;44545;47.480;19.024;2024-01-30T12:12:29;9.93;;;5.45;;
58774;SDS011;44545;47.480;19.024;2024-01-30T12:15:32;12.15;;;5.37;;
58774;SDS011;44545;47.480;19.024;2024-01-30T12:18:35;9.60;;;5.18;;
58774;SDS011;44545;47.480;19.024;2024-01-30T12:21:38;14.90;;;5.45;;
58774;SDS011;44545;47.480;19.024;2024-01-30T12:24:40;9.73;;;4.10;;
58774;SDS011;44545;47.480;19.024;2024-01-30T12:27:47;7.85;;;4.57;;
58774;SDS011;44545;47.480;19.024;2024-01-30T12:31:00;6.95;;;3.92;;
58774;SDS011;44545;47.480;19.024;2024-01-30T12:34:05;7.65;;;4.43;;
58774;SDS011;44545;47.480;19.024;2024-01-30T12:37:08;11.12;;;5.05;;
58774;SDS011;44545;47.480;19.024;2024-01-30T12:40:13;9.90;;;5.60;;
58774;SDS011;44545;47.480;19.024;2024-01-30T12:43:17;6.47;;;3.42;;
58774;SDS011;44545;47.480;19.024;2024-01-30T12:46:34;4.90;;;3.17;;
58774;SDS011;44545;47.480;19.024;2024-01-30T12:49:37;6.95;;;3.60;;
58774;SDS011;44545;47.480;19.024;2024-01-30T12:52:41;3.97;;;2.50;;
58774;SDS011;44545;47.480;19.024;2024-01-30T12:55:44;10.20;;;3.85;;
58774;SDS011;44545;47.480;19.024;2024-01-30T12:58:47;7.80;;;2.87;;
58774;SDS011;44545;47.480;19.024;2024-01-30T13:01:53;2.17;;;1.77;;
58774;SDS011;44545;47.480;19.024;2024-01-30T13:04:56;5.78;;;3.03;;
58774;SDS011;44545;47.480;19.024;2024-01-30T13:07:59;1.90;;;1.62;;
58774;SDS011;44545;47.480;19.024;2024-01-30T13:11:01;2.53;;;2.00;;
58774;SDS011;44545;47.480;19.024;2024-01-30T13:14:05;3.08;;;2.25;;
58774;SDS011;44545;47.480;19.024;2024-01-30T13:17:08;5.45;;;2.58;;
58774;SDS011;44545;47.480;19.024;2024-01-30T13:20:12;5.90;;;2.40;;
58774;SDS011;44545;47.480;19.024;2024-01-30T13:23:20;4.75;;;3.10;;
58774;SDS011;44545;47.480;19.024;2024-01-30T13:26:22;6.25;;;3.22;;
58774;SDS011;44545;47.480;19.024;2024-01-30T13:29:28;3.83;;;2.60;;
58774;SDS011;44545;47.480;19.024;2024-01-30T13:32:30;6.47;;;2.40;;
58774;SDS011;44545;47.480;19.024;2024-01-30T13:35:32;8.30;;;2.65;;
58774;SDS011;44545;47.480;19.024;2024-01-30T13:38:35;2.28;;;1.75;;
58774;SDS011;44545;47.480;19.024;2024-01-30T13:41:37;3.47;;;2.20;;
58774;SDS011;44545;47.480;19.024;2024-01-30T13:44:40;2.50;;;2.00;;
58774;SDS011;44545;47.480;19.024;2024-01-30T13:47:45;2.92;;;1.55;;
58774;SDS011;44545;47.480;19.024;2024-01-30T13:50:48;3.12;;;2.20;;
58774;SDS011;44545;47.480;19.024;2024-01-30T13:53:51;5.05;;;2.05;;
58774;SDS011;44545;47.480;19.024;2024-01-30T13:56:53;5.07;;;2.87;;
58774;SDS011;44545;47.480;19.024;2024-01-30T13:59:56;3.90;;;2.62;;
58774;SDS011;44545;47.480;19.024;2024-01-30T14:02:59;3.33;;;1.62;;
58774;SDS011;44545;47.480;19.024;2024-01-30T14:06:02;6.57;;;4.05;;
58774;SDS011;44545;47.480;19.024;2024-01-30T14:09:05;3.87;;;2.20;;
58774;SDS011;44545;47.480;19.024;2024-01-30T14:12:10;5.43;;;3.05;;
58774;SDS011;44545;47.480;19.024;2024-01-30T14:15:12;5.93;;;3.10;;
58774;SDS011;44545;47.480;19.024;2024-01-30T14:18:29;3.05;;;2.00;;
58774;SDS011;44545;47.480;19.024;2024-01-30T14:21:31;3.55;;;3.17;;
58774;SDS011;44545;47.480;19.024;2024-01-30T14:24:34;4.15;;;2.20;;
58774;SDS011;44545;47.480;19.024;2024-01-30T14:27:36;8.43;;;3.90;;
58774;SDS011;44545;47.480;19.024;2024-01-30T14:30:39;3.47;;;2.80;;
58774;SDS011;44545;47.480;19.024;2024-01-30T14:33:41;3.72;;;2.83;;
58774;SDS011;44545;47.480;19.024;2024-01-30T14:36:44;15.82;;;5.75;;
58774;SDS011;44545;47.480;19.024;2024-01-30T14:39:47;4.12;;;3.15;;
58774;SDS011;44545;47.480;19.024;2024-01-30T14:42:50;3.37;;;2.40;;
58774;SDS011;44545;47.480;19.024;2024-01-30T14:45:52;5.93;;;4.18;;
58774;SDS011;44545;47.480;19.024;2024-01-30T14:48:55;5.45;;;3.28;;
58774;SDS011;44545;47.480;19.024;2024-01-30T14:52:00;5.93;;;3.65;;
58774;SDS011;44545;47.480;19.024;2024-01-30T14:55:03;2.90;;;2.33;;
58774;SDS011;44545;47.480;19.024;2024-01-30T14:58:05;3.90;;;2.60;;
58774;SDS011;44545;47.480;19.024;2024-01-30T15:01:08;4.87;;;3.05;;
58774;SDS011;44545;47.480;19.024;2024-01-30T15:04:11;8.43;;;1.98;;
58774;SDS011;44545;47.480;19.024;2024-01-30T15:07:13;5.75;;;3.53;;
58774;SDS011;44545;47.480;19.024;2024-01-30T15:10:29;7.30;;;2.65;;
58774;SDS011;44545;47.480;19.024;2024-01-30T15:13:31;4.10;;;2.85;;
58774;SDS011;44545;47.480;19.024;2024-01-30T15:16:34;6.28;;;2.17;;
58774;SDS011;44545;47.480;19.024;2024-01-30T15:19:37;5.10;;;3.05;;
58774;SDS011;44545;47.480;19.024;2024-01-30T15:22:40;4.35;;;2.90;;
58774;SDS011;44545;47.480;19.024;2024-01-30T15:25:43;8.13;;;2.87;;
58774;SDS011;44545;47.480;19.024;2024-01-30T15:28:45;5.32;;;2.87;;
58774;SDS011;44545;47.480;19.024;2024-01-30T15:31:48;4.87;;;3.95;;
58774;SDS011;44545;47.480;19.024;2024-01-30T15:34:50;12.68;;;4.00;;
58774;SDS011;44545;47.480;19.024;2024-01-30T15:37:53;7.47;;;3.58;;
58774;SDS011;44545;47.480;19.024;2024-01-30T15:40:55;5.55;;;3.17;;
58774;SDS011;44545;47.480;19.024;2024-01-30T15:43:58;5.97;;;3.05;;
58774;SDS011;44545;47.480;19.024;2024-01-30T15:47:03;8.93;;;5.97;;
58774;SDS011;44545;47.480;19.024;2024-01-30T15:50:06;4.47;;;3.62;;
58774;SDS011;44545;47.480;19.024;2024-01-30T15:53:11;5.57;;;3.95;;
58774;SDS011;44545;47.480;19.024;2024-01-30T15:56:13;5.40;;;3.15;;
58774;SDS011;44545;47.480;19.024;2024-01-30T15:59:15;3.92;;;2.90;;
58774;SDS011;44545;47.480;19.024;2024-01-30T16:02:18;4.80;;;3.40;;
58774;SDS011;44545;47.480;19.024;2024-01-30T16:05:22;4.32;;;2.87;;
58774;SDS011;44545;47.480;19.024;2024-01-30T16:08:25;5.47;;;1.80;;
58774;SDS011;44545;47.480;19.024;2024-01-30T16:11:27;4.53;;;2.33;;
58774;SDS011;44545;47.480;19.024;2024-01-30T16:14:29;8.43;;;3.70;;
58774;SDS011;44545;47.480;19.024;2024-01-30T16:17:32;5.32;;;3.78;;
58774;SDS011;44545;47.480;19.024;2024-01-30T16:20:38;3.72;;;2.97;;
58774;SDS011;44545;47.480;19.024;2024-01-30T16:23:40;5.45;;;2.22;;
58774;SDS011;44545;47.480;19.024;2024-01-30T16:26:43;3.95;;;2.90;;
58774;SDS011;44545;47.480;19.024;2024-01-30T16:29:45;3.58;;;3.08;;
58774;SDS011;44545;47.480;19.024;2024-01-30T16:32:47;7.00;;;3.40;;
58774;SDS011;44545;47.480;19.024;2024-01-30T16:35:50;5.60;;;3.42;;
58774;SDS011;44545;47.480;19.024;2024-01-30T16:38:55;2.53;;;2.33;;
